createdAt,value
2023-02-17T00:00:19.353Z,147640.72
2023-02-17T00:01:24.747Z,147654.00
2023-02-17T00:02:27.357Z,147643.13
2023-02-17T00:03:30.076Z,147661.25
2023-02-17T00:04:34.353Z,147687.91
2023-02-17T00:05:39.874Z,147683.06
2023-02-17T00:06:42.397Z,147666.16
2023-02-17T00:07:44.917Z,147684.28
2023-02-17T00:08:48.041Z,147687.91
2023-02-17T00:09:50.558Z,147670.97
2023-02-17T00:10:58.243Z,147724.22
2023-02-17T00:12:00.767Z,147673.41
2023-02-17T00:13:03.285Z,147681.84
2023-02-17T00:14:05.929Z,147683.06
2023-02-17T00:15:09.167Z,147678.22
2023-02-17T00:16:17.863Z,147693.94
2023-02-17T00:17:20.451Z,147640.72
2023-02-17T00:18:23.818Z,147646.75
2023-02-17T00:19:26.582Z,147839.28
2023-02-17T00:20:29.826Z,147773.88
2023-02-17T00:21:33.057Z,147776.31
2023-02-17T00:22:36.661Z,147777.50
2023-02-17T00:23:39.662Z,147738.78
2023-02-17T00:24:42.783Z,147747.22
2023-02-17T00:25:45.789Z,147721.81
2023-02-17T00:26:49.273Z,147724.22
2023-02-17T00:27:52.270Z,147729.06
2023-02-17T00:28:55.403Z,147712.13
2023-02-17T00:29:58.542Z,147704.88
2023-02-17T00:31:11.462Z,147763.00
2023-02-17T00:32:14.691Z,147724.22
2023-02-17T00:33:18.679Z,147729.06
2023-02-17T00:34:21.802Z,147710.91
2023-02-17T00:35:24.925Z,147715.75
2023-02-17T00:36:28.657Z,147724.22
2023-02-17T00:37:31.887Z,147714.53
2023-02-17T00:38:35.259Z,147710.91
2023-02-17T00:39:38.373Z,147707.28
2023-02-17T00:40:42.813Z,147713.34
2023-02-17T00:41:45.940Z,147707.28
2023-02-17T00:42:49.422Z,147710.91
2023-02-17T00:43:53.023Z,147718.19
2023-02-17T00:44:58.064Z,147726.63
2023-02-17T00:46:01.182Z,147712.13
2023-02-17T00:47:04.314Z,147692.75
2023-02-17T00:48:07.438Z,147687.91
2023-02-17T00:49:16.918Z,147718.19
2023-02-17T00:50:20.155Z,147719.38
2023-02-17T00:51:24.472Z,147710.91
2023-02-17T00:52:27.840Z,147731.53
2023-02-17T00:53:31.325Z,147721.81
2023-02-17T00:54:36.357Z,147716.97
2023-02-17T00:55:39.838Z,147714.53
2023-02-17T00:56:43.713Z,147726.63
2023-02-17T00:57:46.924Z,147721.81
2023-02-17T00:58:50.299Z,147730.31
2023-02-17T00:59:53.409Z,147721.81
2023-02-17T01:00:57.732Z,147754.50
2023-02-17T01:02:00.813Z,147756.91
2023-02-17T01:03:06.131Z,147772.66
2023-02-17T01:04:09.372Z,147744.81
2023-02-17T01:05:12.016Z,147758.13
2023-02-17T01:06:22.937Z,147738.78
2023-02-17T01:07:25.337Z,147778.72
2023-02-17T01:08:27.798Z,147697.63
2023-02-17T01:09:30.747Z,147701.25
2023-02-17T01:10:33.266Z,147704.88
2023-02-17T01:11:36.634Z,147724.22
2023-02-17T01:12:39.797Z,147867.13
2023-02-17T01:13:42.272Z,147806.56
2023-02-17T01:14:45.032Z,147809.00
2023-02-17T01:15:50.213Z,147823.50
2023-02-17T01:16:52.836Z,147784.75
2023-02-17T01:17:56.483Z,147782.34
2023-02-17T01:18:59.241Z,147775.09
2023-02-17T01:20:02.247Z,147777.50
2023-02-17T01:21:04.966Z,147783.56
2023-02-17T01:22:10.412Z,147796.91
2023-02-17T01:23:14.245Z,147787.19
2023-02-17T01:24:17.009Z,147733.94
2023-02-17T01:25:19.770Z,147738.78
2023-02-17T01:26:24.812Z,147926.53
2023-02-17T01:27:27.448Z,147861.09
2023-02-17T01:28:31.496Z,147896.22
2023-02-17T01:29:34.064Z,147888.91
2023-02-17T01:30:36.698Z,147858.63
2023-02-17T01:31:40.549Z,147876.81
2023-02-17T01:32:47.054Z,147856.19
2023-02-17T01:33:50.735Z,147878.03
2023-02-17T01:34:53.253Z,147881.66
2023-02-17T01:35:55.899Z,147905.88
2023-02-17T01:36:58.543Z,147784.75
2023-02-17T01:38:01.533Z,147747.22
2023-02-17T01:39:04.903Z,147706.09
2023-02-17T01:40:08.269Z,147692.75
2023-02-17T01:41:11.855Z,147692.75
2023-02-17T01:42:22.418Z,147706.09
2023-02-17T01:43:25.300Z,147678.22
2023-02-17T01:44:31.540Z,147678.22
2023-02-17T01:45:46.301Z,147702.47
2023-02-17T01:46:51.408Z,147697.63
2023-02-17T01:48:01.896Z,147707.28
2023-02-17T01:49:27.821Z,147695.16
2023-02-17T01:50:39.098Z,147704.88
2023-02-17T01:51:42.449Z,147666.16
2023-02-17T01:52:45.459Z,147668.56
2023-02-17T01:54:06.822Z,147693.94
2023-02-17T01:55:13.788Z,147673.41
2023-02-17T01:56:17.507Z,147670.97
2023-02-17T01:57:23.753Z,147700.03
2023-02-17T01:58:27.585Z,147685.50
2023-02-17T01:59:31.197Z,147690.31
2023-02-17T02:00:35.506Z,147690.31
2023-02-17T02:01:39.586Z,147690.31
2023-02-17T02:02:46.195Z,147697.63
2023-02-17T02:03:52.437Z,147697.63
2023-02-17T02:04:55.391Z,147666.16
2023-02-17T02:05:59.634Z,147690.31
2023-02-17T02:07:03.349Z,147704.88
2023-02-17T02:08:06.591Z,147704.88
2023-02-17T02:09:19.712Z,147738.78
2023-02-17T02:10:22.320Z,147692.75
2023-02-17T02:11:24.838Z,147691.53
2023-02-17T02:12:33.120Z,147719.38
2023-02-17T02:13:37.444Z,147700.03
2023-02-17T02:14:39.966Z,147689.13
2023-02-17T02:15:57.486Z,147712.13
2023-02-17T02:17:14.051Z,147716.97
2023-02-17T02:18:29.174Z,147712.13
2023-02-17T02:19:48.975Z,147702.47
2023-02-17T02:21:16.103Z,147727.84
2023-02-17T02:22:39.983Z,147670.97
2023-02-17T02:23:54.862Z,147724.22
2023-02-17T02:25:30.384Z,147721.81
2023-02-17T02:27:13.829Z,147706.09
2023-02-17T02:28:23.925Z,147720.59
2023-02-17T02:29:57.816Z,147723.00
2023-02-17T02:31:35.719Z,147716.97
2023-02-17T02:32:57.402Z,147678.22
2023-02-17T02:34:05.562Z,147702.47
2023-02-17T02:35:36.531Z,147729.06
2023-02-17T02:36:52.368Z,147719.38
2023-02-17T02:38:10.367Z,147687.91
2023-02-17T02:39:21.774Z,147724.22
2023-02-17T02:40:32.214Z,147720.59
2023-02-17T02:41:42.653Z,147720.59
2023-02-17T02:42:47.335Z,147695.16
2023-02-17T02:43:50.590Z,147692.75
2023-02-17T02:44:53.821Z,147689.13
2023-02-17T02:45:57.340Z,147697.63
2023-02-17T02:47:06.790Z,147727.84
2023-02-17T02:48:10.143Z,147710.91
2023-02-17T02:49:13.387Z,147716.97
2023-02-17T02:50:39.550Z,147741.19
2023-02-17T02:51:55.154Z,147700.03
2023-02-17T02:53:25.513Z,147765.41
2023-02-17T02:54:49.520Z,147760.53
2023-02-17T02:56:24.199Z,147753.28
2023-02-17T02:57:54.919Z,147759.31
2023-02-17T02:59:10.402Z,147731.53
2023-02-17T03:00:26.128Z,147715.75
2023-02-17T03:02:01.526Z,147709.72
2023-02-17T03:03:18.016Z,147710.91
2023-02-17T03:04:53.254Z,147698.81
2023-02-17T03:06:17.267Z,147727.84
2023-02-17T03:07:27.458Z,147719.38
2023-02-17T03:08:38.859Z,147713.34
2023-02-17T03:09:42.097Z,147690.31
2023-02-17T03:10:51.705Z,147702.47
2023-02-17T03:11:58.836Z,147709.72
2023-02-17T03:13:03.950Z,147697.63
2023-02-17T03:14:16.117Z,147714.53
2023-02-17T03:15:30.599Z,147718.19
2023-02-17T03:16:37.207Z,147710.91
2023-02-17T03:17:40.008Z,147690.31
2023-02-17T03:18:43.250Z,147687.91
2023-02-17T03:19:47.688Z,147698.81
2023-02-17T03:20:56.518Z,147738.78
2023-02-17T03:22:23.772Z,147707.28
2023-02-17T03:23:26.328Z,147678.22
2023-02-17T03:24:28.967Z,147687.91
2023-02-17T03:25:31.848Z,147709.72
2023-02-17T03:26:34.726Z,147697.63
2023-02-17T03:27:37.328Z,147683.06
2023-02-17T03:28:39.891Z,147685.50
2023-02-17T03:29:43.015Z,147693.94
2023-02-17T03:30:45.663Z,147701.25
2023-02-17T03:31:48.455Z,147695.16
2023-02-17T03:32:51.063Z,147692.75
2023-02-17T03:33:53.657Z,147707.28
2023-02-17T03:34:56.334Z,147680.66
2023-02-17T03:35:59.700Z,147686.69
2023-02-17T03:37:02.224Z,147679.44
2023-02-17T03:38:06.417Z,147690.31
2023-02-17T03:39:09.065Z,147685.50
2023-02-17T03:40:11.815Z,147692.75
2023-02-17T03:41:14.456Z,147697.63
2023-02-17T03:42:17.338Z,147690.31
2023-02-17T03:43:20.096Z,147687.91
2023-02-17T03:44:22.860Z,147695.16
2023-02-17T03:45:25.976Z,147700.03
2023-02-17T03:46:28.505Z,147706.09
2023-02-17T03:47:31.148Z,147690.31
2023-02-17T03:48:33.783Z,147708.50
2023-02-17T03:49:36.422Z,147693.94
2023-02-17T03:50:39.061Z,147695.16
2023-02-17T03:51:41.704Z,147693.94
2023-02-17T03:52:45.660Z,147703.66
2023-02-17T03:53:49.038Z,147703.66
2023-02-17T03:54:52.743Z,147692.75
2023-02-17T03:55:55.267Z,147703.66
2023-02-17T03:56:59.221Z,147714.53
2023-02-17T03:58:01.753Z,147708.50
2023-02-17T03:59:04.744Z,147707.28
2023-02-17T04:00:07.989Z,147715.75
2023-02-17T04:01:15.846Z,147716.97
2023-02-17T04:02:18.426Z,147724.22
2023-02-17T04:03:21.188Z,147716.97
2023-02-17T04:04:23.767Z,147721.81
2023-02-17T04:05:26.346Z,147716.97
2023-02-17T04:06:28.871Z,147716.97
2023-02-17T04:07:31.395Z,147718.19
2023-02-17T04:08:34.151Z,147724.22
2023-02-17T04:09:36.792Z,147729.06
2023-02-17T04:10:39.317Z,147726.63
2023-02-17T04:11:42.567Z,147738.78
2023-02-17T04:12:45.213Z,147707.28
2023-02-17T04:13:47.841Z,147709.72
2023-02-17T04:14:50.368Z,147701.25
2023-02-17T04:15:53.404Z,147716.97
2023-02-17T04:16:55.882Z,147703.66
2023-02-17T04:17:58.412Z,147707.28
2023-02-17T04:19:01.054Z,147709.72
2023-02-17T04:20:05.038Z,147726.63
2023-02-17T04:21:08.009Z,147725.44
2023-02-17T04:22:10.789Z,147730.31
2023-02-17T04:23:14.612Z,147741.19
2023-02-17T04:24:17.374Z,147733.94
2023-02-17T04:25:20.019Z,147744.81
2023-02-17T04:26:22.782Z,147750.88
2023-02-17T04:27:25.903Z,147742.41
2023-02-17T04:28:29.623Z,147758.13
2023-02-17T04:29:33.835Z,147771.47
2023-02-17T04:30:36.827Z,147741.19
2023-02-17T04:31:39.935Z,147726.63
2023-02-17T04:32:43.080Z,147746.03
2023-02-17T04:33:46.311Z,147748.44
2023-02-17T04:34:49.432Z,147744.81
2023-02-17T04:35:54.247Z,147750.88
2023-02-17T04:36:57.359Z,147741.19
2023-02-17T04:38:00.479Z,147747.22
2023-02-17T04:39:03.600Z,147746.03
2023-02-17T04:40:10.721Z,147769.03
2023-02-17T04:41:13.806Z,147744.81
2023-02-17T04:42:17.163Z,147738.78
2023-02-17T04:43:20.286Z,147726.63
2023-02-17T04:44:23.410Z,147719.38
2023-02-17T04:45:26.529Z,147712.13
2023-02-17T04:46:29.817Z,147719.38
2023-02-17T04:47:33.371Z,147720.59
2023-02-17T04:48:36.492Z,147720.59
2023-02-17T04:49:39.618Z,147712.13
2023-02-17T04:50:42.737Z,147716.97
2023-02-17T04:51:45.987Z,147721.81
2023-02-17T04:52:49.581Z,147736.34
2023-02-17T04:53:52.702Z,147719.38
2023-02-17T04:54:55.945Z,147715.75
2023-02-17T04:55:59.071Z,147729.06
2023-02-17T04:57:02.322Z,147724.22
2023-02-17T04:58:05.562Z,147736.34
2023-02-17T04:59:08.927Z,147735.16
2023-02-17T05:00:12.632Z,147735.16
2023-02-17T05:01:16.270Z,147719.38
2023-02-17T05:02:19.476Z,147729.06
2023-02-17T05:03:23.320Z,147738.78
2023-02-17T05:04:26.840Z,147731.53
2023-02-17T05:05:30.406Z,147743.59
2023-02-17T05:06:33.644Z,147725.44
2023-02-17T05:07:36.645Z,147738.78
2023-02-17T05:08:40.006Z,147738.78
2023-02-17T05:09:42.895Z,147743.59
2023-02-17T05:10:45.890Z,147744.81
2023-02-17T05:11:48.532Z,147741.19
2023-02-17T05:12:51.293Z,147737.56
2023-02-17T05:13:53.946Z,147733.94
2023-02-17T05:14:56.582Z,147746.03
2023-02-17T05:15:59.609Z,147760.53
2023-02-17T05:17:02.393Z,147755.69
2023-02-17T05:18:05.343Z,147769.03
2023-02-17T05:19:07.915Z,147750.88
2023-02-17T05:20:10.913Z,147748.44
2023-02-17T05:21:13.504Z,147735.16
2023-02-17T05:22:16.192Z,147723.00
2023-02-17T05:23:18.730Z,147738.78
2023-02-17T05:24:21.478Z,147743.59
2023-02-17T05:25:24.119Z,147754.50
2023-02-17T05:26:27.080Z,147764.22
2023-02-17T05:27:29.640Z,147746.03
2023-02-17T05:28:32.162Z,147736.34
2023-02-17T05:29:35.137Z,147764.22
2023-02-17T05:30:37.761Z,147758.13
2023-02-17T05:31:40.541Z,147749.66
2023-02-17T05:32:43.448Z,147753.28
2023-02-17T05:33:46.048Z,147753.28
2023-02-17T05:34:48.692Z,147741.19
2023-02-17T05:35:51.365Z,147743.59
2023-02-17T05:36:54.007Z,147748.44
2023-02-17T05:37:56.532Z,147750.88
2023-02-17T05:38:59.289Z,147758.13
2023-02-17T05:40:01.905Z,147764.22
2023-02-17T05:41:04.808Z,147763.00
2023-02-17T05:42:07.570Z,147776.31
2023-02-17T05:43:10.091Z,147747.22
2023-02-17T05:44:12.741Z,147758.13
2023-02-17T05:45:15.495Z,147759.31
2023-02-17T05:46:18.189Z,147765.41
2023-02-17T05:47:20.893Z,147746.03
2023-02-17T05:48:23.532Z,147742.41
2023-02-17T05:49:26.299Z,147738.78
2023-02-17T05:50:29.037Z,147753.28
2023-02-17T05:51:38.788Z,147759.31
2023-02-17T05:52:41.661Z,147753.28
2023-02-17T05:53:45.023Z,147758.13
2023-02-17T05:54:47.568Z,147733.94
2023-02-17T05:55:50.200Z,147744.81
2023-02-17T05:56:52.819Z,147750.88
2023-02-17T05:57:55.345Z,147758.13
2023-02-17T05:58:58.224Z,147777.50
2023-02-17T06:00:00.746Z,147772.66
2023-02-17T06:01:11.546Z,147810.19
2023-02-17T06:02:14.075Z,147759.31
2023-02-17T06:03:17.093Z,147753.28
2023-02-17T06:04:19.617Z,147760.53
2023-02-17T06:05:22.112Z,147759.31
2023-02-17T06:06:24.755Z,147759.31
2023-02-17T06:07:27.272Z,147755.69
2023-02-17T06:08:30.272Z,147753.28
2023-02-17T06:09:32.798Z,147750.88
2023-02-17T06:10:35.330Z,147719.38
2023-02-17T06:11:37.721Z,147724.22
2023-02-17T06:12:40.603Z,147727.84
2023-02-17T06:13:43.240Z,147727.84
2023-02-17T06:14:45.880Z,147733.94
2023-02-17T06:15:48.429Z,147726.63
2023-02-17T06:16:51.045Z,147709.72
2023-02-17T06:17:53.569Z,147733.94
2023-02-17T06:18:56.102Z,147733.94
2023-02-17T06:19:58.737Z,147729.06
2023-02-17T06:21:01.496Z,147939.84
2023-02-17T06:22:04.134Z,148029.50
2023-02-17T06:23:06.773Z,147913.13
2023-02-17T06:24:09.561Z,147950.72
2023-02-17T06:25:12.300Z,147932.59
2023-02-17T06:26:15.066Z,147922.81
2023-02-17T06:27:18.087Z,147857.41
2023-02-17T06:28:21.809Z,147861.09
2023-02-17T06:29:24.667Z,147825.91
2023-02-17T06:30:28.089Z,147794.44
2023-02-17T06:31:31.099Z,147744.81
2023-02-17T06:32:34.987Z,147765.41
2023-02-17T06:33:38.113Z,147760.53
2023-02-17T06:34:41.110Z,147760.53
2023-02-17T06:35:48.674Z,147823.50
2023-02-17T06:36:51.796Z,147755.69
2023-02-17T06:37:54.976Z,147763.00
2023-02-17T06:38:58.157Z,147758.13
2023-02-17T06:40:01.287Z,147755.69
2023-02-17T06:41:04.518Z,147763.00
2023-02-17T06:42:07.643Z,147783.56
2023-02-17T06:43:10.882Z,147773.88
2023-02-17T06:44:14.004Z,147782.34
2023-02-17T06:45:17.372Z,147741.19
2023-02-17T06:46:20.486Z,147739.97
2023-02-17T06:47:23.608Z,147861.09
2023-02-17T06:48:26.730Z,147879.22
2023-02-17T06:49:29.853Z,147867.13
2023-02-17T06:50:32.979Z,147830.81
2023-02-17T06:51:36.096Z,147822.28
2023-02-17T06:52:39.576Z,147729.06
2023-02-17T06:53:42.699Z,147746.03
2023-02-17T06:54:47.621Z,147737.56
2023-02-17T06:55:50.741Z,147760.53
2023-02-17T06:56:53.982Z,147755.69
2023-02-17T06:57:57.590Z,147776.31
2023-02-17T06:59:02.028Z,147792.00
2023-02-17T07:00:07.069Z,147778.72
2023-02-17T07:01:17.875Z,147806.56
2023-02-17T07:02:21.069Z,147809.00
2023-02-17T07:03:24.358Z,147732.72
2023-02-17T07:04:27.597Z,147741.19
2023-02-17T07:05:30.963Z,147738.78
2023-02-17T07:06:34.328Z,147779.94
2023-02-17T07:07:37.928Z,147733.94
2023-02-17T07:08:41.527Z,147733.94
2023-02-17T07:09:44.768Z,147747.22
2023-02-17T07:10:47.891Z,147739.97
2023-02-17T07:11:51.613Z,147755.69
2023-02-17T07:12:54.735Z,147754.50
2023-02-17T07:13:58.461Z,147770.25
2023-02-17T07:15:01.469Z,147772.66
2023-02-17T07:16:05.170Z,147784.75
2023-02-17T07:17:09.028Z,147763.00
2023-02-17T07:18:11.785Z,147770.25
2023-02-17T07:19:14.786Z,147771.47
2023-02-17T07:20:17.667Z,147796.91
2023-02-17T07:21:20.674Z,147789.59
2023-02-17T07:22:25.713Z,147795.69
2023-02-17T07:23:28.360Z,147761.75
2023-02-17T07:24:31.356Z,147807.78
2023-02-17T07:25:34.297Z,147804.16
2023-02-17T07:26:38.078Z,147796.91
2023-02-17T07:27:40.882Z,147782.34
2023-02-17T07:28:43.603Z,147783.56
2023-02-17T07:29:46.251Z,147809.00
2023-02-17T07:30:48.787Z,147809.00
2023-02-17T07:31:51.676Z,147787.19
2023-02-17T07:32:54.177Z,147781.13
2023-02-17T07:33:56.849Z,147770.25
2023-02-17T07:34:59.369Z,147765.41
2023-02-17T07:36:07.753Z,147818.66
2023-02-17T07:37:10.417Z,147794.44
2023-02-17T07:38:13.532Z,147763.00
2023-02-17T07:39:16.776Z,147760.53
2023-02-17T07:40:19.497Z,147763.00
2023-02-17T07:41:25.056Z,147804.16
2023-02-17T07:42:28.193Z,147794.44
2023-02-17T07:43:30.812Z,147792.00
2023-02-17T07:44:33.811Z,147748.44
2023-02-17T07:45:36.367Z,147785.97
2023-02-17T07:46:41.734Z,147794.44
2023-02-17T07:47:44.374Z,147779.94
2023-02-17T07:48:47.979Z,147782.34
2023-02-17T07:49:50.623Z,147763.00
2023-02-17T07:50:53.503Z,147748.44
2023-02-17T07:51:56.275Z,147767.84
2023-02-17T07:52:59.134Z,147782.34
2023-02-17T07:54:02.498Z,147785.97
2023-02-17T07:55:05.498Z,147793.22
2023-02-17T07:56:11.017Z,147806.56
2023-02-17T07:57:13.660Z,147779.94
2023-02-17T07:58:16.404Z,147778.72
2023-02-17T07:59:18.946Z,147789.59
2023-02-17T08:00:21.703Z,147825.91
2023-02-17T08:01:25.660Z,147821.09
2023-02-17T08:02:28.307Z,147767.84
2023-02-17T08:03:30.823Z,147777.50
2023-02-17T08:04:33.373Z,147806.56
2023-02-17T08:05:39.342Z,147821.09
2023-02-17T08:06:41.867Z,147833.22
2023-02-17T08:07:44.386Z,147821.09
2023-02-17T08:09:06.604Z,147813.81
2023-02-17T08:10:31.449Z,147841.69
2023-02-17T08:11:53.171Z,147823.50
2023-02-17T08:13:07.910Z,147821.09
2023-02-17T08:14:12.857Z,147838.06
2023-02-17T08:15:15.712Z,147840.47
2023-02-17T08:16:18.375Z,147812.63
2023-02-17T08:17:20.887Z,147821.09
2023-02-17T08:18:23.517Z,147830.81
2023-02-17T08:19:31.730Z,147853.78
2023-02-17T08:20:42.136Z,147835.63
2023-02-17T08:21:45.030Z,147861.09
2023-02-17T08:22:47.659Z,147830.81
2023-02-17T08:23:50.295Z,147823.50
2023-02-17T08:24:54.500Z,147828.38
2023-02-17T08:25:59.909Z,147859.84
2023-02-17T08:27:02.776Z,147840.47
2023-02-17T08:28:06.396Z,147858.63
2023-02-17T08:29:09.253Z,147839.28
2023-02-17T08:30:12.546Z,147829.59
2023-02-17T08:31:21.025Z,147876.81
2023-02-17T08:32:24.152Z,147829.59
2023-02-17T08:33:27.026Z,147839.28
2023-02-17T08:34:33.894Z,147848.94
2023-02-17T08:35:36.888Z,147852.56
2023-02-17T08:36:40.235Z,147847.75
2023-02-17T08:37:43.254Z,147844.09
2023-02-17T08:38:50.560Z,147864.72
2023-02-17T08:39:54.038Z,147879.22
2023-02-17T08:40:57.184Z,147869.56
2023-02-17T08:42:00.883Z,147874.38
2023-02-17T08:43:03.998Z,147875.59
2023-02-17T08:44:15.782Z,147917.97
2023-02-17T08:45:18.898Z,147887.69
2023-02-17T08:46:22.661Z,147916.75
2023-02-17T08:47:25.965Z,147917.97
2023-02-17T08:48:29.209Z,147927.75
2023-02-17T08:49:33.085Z,147930.16
2023-02-17T08:50:36.445Z,147845.31
2023-02-17T08:51:40.057Z,147816.25
2023-02-17T08:52:43.132Z,147806.56
2023-02-17T08:53:47.220Z,147818.66
2023-02-17T08:54:52.622Z,147824.72
2023-02-17T08:55:56.221Z,147815.03
2023-02-17T08:56:59.341Z,147813.81
2023-02-17T08:58:02.633Z,147806.56
2023-02-17T08:59:08.287Z,147828.38
2023-02-17T09:00:12.576Z,147844.09
2023-02-17T09:01:16.792Z,147809.00
2023-02-17T09:02:19.881Z,147796.91
2023-02-17T09:03:23.376Z,147801.75
2023-02-17T09:04:26.639Z,147806.56
2023-02-17T09:05:29.994Z,147806.56
2023-02-17T09:06:42.556Z,147859.84
2023-02-17T09:07:45.697Z,147846.53
2023-02-17T09:08:49.760Z,147842.91
2023-02-17T09:09:52.910Z,147847.75
2023-02-17T09:10:57.085Z,147855.00
2023-02-17T09:12:00.334Z,147871.97
2023-02-17T09:13:03.636Z,147857.41
2023-02-17T09:14:07.894Z,147870.75
2023-02-17T09:15:10.840Z,147925.22
2023-02-17T09:16:14.044Z,147948.31
2023-02-17T09:17:17.143Z,147949.53
2023-02-17T09:18:22.794Z,147982.22
2023-02-17T09:19:26.453Z,147968.94
2023-02-17T09:20:29.347Z,147973.75
2023-02-17T09:21:32.544Z,147985.84
2023-02-17T09:22:35.560Z,147996.78
2023-02-17T09:23:38.642Z,147968.94
2023-02-17T09:24:41.279Z,147966.50
2023-02-17T09:25:44.809Z,147971.34
2023-02-17T09:26:47.325Z,147962.88
2023-02-17T09:27:50.330Z,147964.09
2023-02-17T09:28:53.061Z,147955.56
2023-02-17T09:29:55.842Z,147984.66
2023-02-17T09:30:58.511Z,147968.94
2023-02-17T09:32:01.165Z,147983.44
2023-02-17T09:33:05.492Z,147978.59
2023-02-17T09:34:08.090Z,147988.28
2023-02-17T09:35:15.999Z,148045.25
2023-02-17T09:36:22.089Z,148046.44
2023-02-17T09:37:25.153Z,147942.25
2023-02-17T09:38:27.615Z,147927.75
2023-02-17T09:39:30.296Z,147920.41
2023-02-17T09:40:39.137Z,147910.72
2023-02-17T09:41:52.154Z,147956.78
2023-02-17T09:42:54.877Z,147915.56
2023-02-17T09:43:57.936Z,147951.94
2023-02-17T09:45:04.995Z,147979.81
2023-02-17T09:46:12.102Z,147998.00
2023-02-17T09:47:20.355Z,148014.94
2023-02-17T09:48:29.340Z,148008.91
2023-02-17T09:49:39.329Z,147996.78
2023-02-17T09:50:48.306Z,147993.16
2023-02-17T09:52:09.067Z,147983.44
2023-02-17T09:53:45.312Z,147999.22
2023-02-17T09:55:11.132Z,147995.59
2023-02-17T09:56:19.741Z,148011.31
2023-02-17T09:57:27.564Z,148031.94
2023-02-17T09:58:36.543Z,148012.53
2023-02-17T09:59:59.326Z,148031.94
2023-02-17T10:01:06.422Z,148001.63
2023-02-17T10:02:17.711Z,148029.50
2023-02-17T10:03:31.332Z,148045.25
2023-02-17T10:04:44.386Z,148022.19
2023-02-17T10:05:54.155Z,148040.41
2023-02-17T10:07:04.439Z,148029.50
2023-02-17T10:08:16.420Z,148042.81
2023-02-17T10:09:45.622Z,148064.66
2023-02-17T10:11:04.699Z,148046.44
2023-02-17T10:12:20.348Z,148037.97
2023-02-17T10:13:24.935Z,148056.13
2023-02-17T10:14:47.592Z,148090.09
2023-02-17T10:15:53.387Z,148076.75
2023-02-17T10:17:08.411Z,148099.78
2023-02-17T10:18:20.188Z,148077.97
2023-02-17T10:19:31.641Z,148092.53
2023-02-17T10:20:39.708Z,148104.63
2023-02-17T10:22:02.517Z,148092.53
2023-02-17T10:23:16.572Z,148081.59
2023-02-17T10:24:19.170Z,148054.91
2023-02-17T10:25:39.445Z,148101.00
2023-02-17T10:26:53.627Z,148094.94
2023-02-17T10:28:10.109Z,148097.38
2023-02-17T10:29:30.882Z,148117.94
2023-02-17T10:30:41.544Z,148111.88
2023-02-17T10:31:45.923Z,148081.59
2023-02-17T10:33:01.059Z,148094.94
2023-02-17T10:34:10.308Z,148077.97
2023-02-17T10:35:22.426Z,148099.78
2023-02-17T10:36:56.275Z,148110.69
2023-02-17T10:38:15.520Z,148108.25
2023-02-17T10:39:44.643Z,148116.72
2023-02-17T10:40:51.481Z,148102.22
2023-02-17T10:41:55.672Z,148073.13
2023-02-17T10:43:07.062Z,148094.94
2023-02-17T10:44:19.680Z,148086.44
2023-02-17T10:45:38.638Z,148080.38
2023-02-17T10:46:44.325Z,148073.13
2023-02-17T10:47:48.122Z,148090.09
2023-02-17T10:48:53.897Z,148105.84
2023-02-17T10:49:58.926Z,148092.53
2023-02-17T10:51:02.412Z,148092.53
2023-02-17T10:52:19.928Z,148097.38
2023-02-17T10:53:26.310Z,148080.38
2023-02-17T10:54:43.332Z,148120.34
2023-02-17T10:55:58.945Z,148104.63
2023-02-17T10:57:04.232Z,148063.44
2023-02-17T10:58:22.579Z,148099.78
2023-02-17T10:59:40.709Z,148116.72
2023-02-17T11:00:43.906Z,148063.44
2023-02-17T11:01:47.308Z,148084.00
2023-02-17T11:02:52.716Z,148092.53
2023-02-17T11:04:05.506Z,148101.00
2023-02-17T11:05:20.916Z,148070.69
2023-02-17T11:06:24.398Z,148065.84
2023-02-17T11:07:39.877Z,148073.13
2023-02-17T11:08:59.321Z,148087.63
2023-02-17T11:10:05.681Z,148073.13
2023-02-17T11:11:19.120Z,148090.09
2023-02-17T11:12:42.778Z,148073.13
2023-02-17T11:14:10.648Z,148091.31
2023-02-17T11:15:22.491Z,148070.69
2023-02-17T11:16:40.763Z,148105.84
2023-02-17T11:17:44.814Z,148088.84
2023-02-17T11:18:49.385Z,148092.53
2023-02-17T11:19:58.873Z,148102.22
2023-02-17T11:21:07.748Z,148111.88
2023-02-17T11:22:41.226Z,148110.69
2023-02-17T11:23:57.086Z,148103.41
2023-02-17T11:25:01.505Z,148087.63
2023-02-17T11:26:11.275Z,148101.00
2023-02-17T11:27:26.762Z,148108.25
2023-02-17T11:28:29.640Z,148102.22
2023-02-17T11:29:34.220Z,148102.22
2023-02-17T11:30:40.082Z,148132.50
2023-02-17T11:31:43.017Z,148107.06
2023-02-17T11:32:45.807Z,148109.47
2023-02-17T11:33:48.499Z,148092.53
2023-02-17T11:34:58.098Z,148117.94
2023-02-17T11:36:02.023Z,148116.72
2023-02-17T11:37:04.694Z,148070.69
2023-02-17T11:38:22.339Z,148098.56
2023-02-17T11:39:25.342Z,148050.06
2023-02-17T11:40:31.052Z,148081.59
2023-02-17T11:41:42.823Z,148085.22
2023-02-17T11:42:55.941Z,148065.84
2023-02-17T11:44:00.132Z,148069.47
2023-02-17T11:45:17.773Z,148099.78
2023-02-17T11:46:44.502Z,148088.84
2023-02-17T11:48:09.743Z,148075.53
2023-02-17T11:49:40.001Z,148092.53
2023-02-17T11:50:56.184Z,148073.13
2023-02-17T11:52:17.395Z,148034.34
2023-02-17T11:53:38.560Z,148031.94
2023-02-17T11:55:15.982Z,148063.44
2023-02-17T11:56:22.584Z,148061.00
2023-02-17T11:57:54.262Z,148042.81
2023-02-17T11:59:08.926Z,148058.59
2023-02-17T12:00:27.023Z,148044.03
2023-02-17T12:01:48.027Z,148071.91
2023-02-17T12:03:10.064Z,148054.91
2023-02-17T12:04:31.950Z,148034.34
2023-02-17T12:06:09.510Z,148031.94
2023-02-17T12:07:15.264Z,147988.28
2023-02-17T12:08:33.987Z,148019.78
2023-02-17T12:09:54.409Z,148007.69
2023-02-17T12:11:12.506Z,148012.53
2023-02-17T12:12:57.990Z,148064.66
2023-02-17T12:14:18.751Z,148046.44
2023-02-17T12:15:49.228Z,148051.28
2023-02-17T12:17:03.152Z,148070.69
2023-02-17T12:18:15.036Z,148061.00
2023-02-17T12:19:37.112Z,148019.78
2023-02-17T12:21:14.918Z,148036.78
2023-02-17T12:22:37.357Z,148005.25
2023-02-17T12:24:10.603Z,148044.03
2023-02-17T12:25:35.922Z,148031.94
2023-02-17T12:26:53.206Z,148022.19
2023-02-17T12:28:23.087Z,148051.28
2023-02-17T12:29:33.056Z,148036.78
2023-02-17T12:30:46.268Z,148039.19
2023-02-17T12:32:07.742Z,148046.44
2023-02-17T12:33:33.419Z,148039.19
2023-02-17T12:34:53.130Z,148039.19
2023-02-17T12:36:10.261Z,148047.66
2023-02-17T12:37:27.304Z,148053.72
2023-02-17T12:39:34.508Z,148068.28
2023-02-17T12:40:37.508Z,148051.28
2023-02-17T12:41:53.950Z,148058.59
2023-02-17T12:43:03.555Z,148034.34
2023-02-17T12:44:21.560Z,148091.31
2023-02-17T12:45:34.399Z,148053.72
2023-02-17T12:46:43.900Z,148076.75